Terminal Aerodrome Forecast
Issued by NWS Charleston, WV

Current Version | Previous Version | Graphics & Text | Print | Product List | Glossary On
Versions: 1 2 3 4 5 6 7 8 9 10 11 12 13 14 15 16 17 18 19 20 21 22
000
FTUS41 KRLX 292340
TAFPKB
TAF
KPKB 292340Z 3000/3024 00000KT P6SM SCT040
     FM300600 00000KT 5SM BR BKN040
     FM301000 00000KT 6SM BR BKN040
     FM301200 00000KT P6SM BKN040
     FM302000 21006KT P6SM BKN040=

USA.gov is the U.S. government's official web portal to all federal, state and local government web resources and services.